sensor_id;sensor_type;location;lat;lon;timestamp;P1;durP1;ratioP1;P2;durP2;ratioP2
15454;SDS011;21057;51.024;7.540;2023-06-24T00:01:35;16.17;;;15.18;;
15454;SDS011;21057;51.024;7.540;2023-06-24T00:04:03;15.98;;;14.80;;
15454;SDS011;21057;51.024;7.540;2023-06-24T00:06:30;16.10;;;15.10;;
15454;SDS011;21057;51.024;7.540;2023-06-24T00:08:57;15.82;;;14.82;;
15454;SDS011;21057;51.024;7.540;2023-06-24T00:11:26;16.75;;;15.75;;
15454;SDS011;21057;51.024;7.540;2023-06-24T00:13:55;16.13;;;15.13;;
15454;SDS011;21057;51.024;7.540;2023-06-24T00:16:23;16.40;;;15.40;;
15454;SDS011;21057;51.024;7.540;2023-06-24T00:18:52;16.05;;;15.05;;
15454;SDS011;21057;51.024;7.540;2023-06-24T00:21:23;16.10;;;15.07;;
15454;SDS011;21057;51.024;7.540;2023-06-24T00:23:55;16.13;;;15.05;;
15454;SDS011;21057;51.024;7.540;2023-06-24T00:26:22;15.20;;;14.35;;
15454;SDS011;21057;51.024;7.540;2023-06-24T00:28:49;16.30;;;15.20;;
15454;SDS011;21057;51.024;7.540;2023-06-24T00:31:17;15.95;;;14.82;;
15454;SDS011;21057;51.024;7.540;2023-06-24T00:33:45;15.90;;;14.95;;
15454;SDS011;21057;51.024;7.540;2023-06-24T00:36:12;17.17;;;15.65;;
15454;SDS011;21057;51.024;7.540;2023-06-24T00:38:39;15.30;;;14.40;;
15454;SDS011;21057;51.024;7.540;2023-06-24T00:41:06;15.88;;;14.98;;
15454;SDS011;21057;51.024;7.540;2023-06-24T00:43:33;17.25;;;16.05;;
15454;SDS011;21057;51.024;7.540;2023-06-24T00:46:00;16.85;;;15.77;;
15454;SDS011;21057;51.024;7.540;2023-06-24T00:48:29;16.45;;;15.43;;
15454;SDS011;21057;51.024;7.540;2023-06-24T00:50:56;17.00;;;15.90;;
15454;SDS011;21057;51.024;7.540;2023-06-24T00:53:24;16.80;;;15.70;;
15454;SDS011;21057;51.024;7.540;2023-06-24T00:55:51;17.23;;;16.00;;
15454;SDS011;21057;51.024;7.540;2023-06-24T00:58:21;17.48;;;16.30;;
15454;SDS011;21057;51.024;7.540;2023-06-24T01:00:49;17.58;;;16.48;;
15454;SDS011;21057;51.024;7.540;2023-06-24T01:03:23;17.17;;;16.08;;
15454;SDS011;21057;51.024;7.540;2023-06-24T01:05:51;17.17;;;16.08;;
15454;SDS011;21057;51.024;7.540;2023-06-24T01:08:20;16.42;;;15.32;;
15454;SDS011;21057;51.024;7.540;2023-06-24T01:10:47;17.30;;;15.85;;
15454;SDS011;21057;51.024;7.540;2023-06-24T01:13:15;16.33;;;15.27;;
15454;SDS011;21057;51.024;7.540;2023-06-24T01:15:42;16.92;;;15.90;;
15454;SDS011;21057;51.024;7.540;2023-06-24T01:18:10;16.30;;;15.30;;
15454;SDS011;21057;51.024;7.540;2023-06-24T01:20:45;16.45;;;15.35;;
15454;SDS011;21057;51.024;7.540;2023-06-24T01:23:20;16.60;;;15.57;;
15454;SDS011;21057;51.024;7.540;2023-06-24T01:26:12;17.20;;;16.10;;
15454;SDS011;21057;51.024;7.540;2023-06-24T01:31:48;16.90;;;15.82;;
15454;SDS011;21057;51.024;7.540;2023-06-24T01:34:21;15.93;;;14.93;;
15454;SDS011;21057;51.024;7.540;2023-06-24T01:36:54;16.70;;;15.55;;
15454;SDS011;21057;51.024;7.540;2023-06-24T01:39:38;16.75;;;15.70;;
15454;SDS011;21057;51.024;7.540;2023-06-24T01:42:11;17.10;;;16.02;;
15454;SDS011;21057;51.024;7.540;2023-06-24T01:44:40;17.40;;;16.20;;
15454;SDS011;21057;51.024;7.540;2023-06-24T01:47:11;17.40;;;16.20;;
15454;SDS011;21057;51.024;7.540;2023-06-24T01:49:41;17.30;;;16.10;;
15454;SDS011;21057;51.024;7.540;2023-06-24T01:52:10;17.70;;;16.58;;
15454;SDS011;21057;51.024;7.540;2023-06-24T01:54:39;18.45;;;17.30;;
15454;SDS011;21057;51.024;7.540;2023-06-24T01:57:08;17.60;;;16.42;;
15454;SDS011;21057;51.024;7.540;2023-06-24T01:59:38;16.88;;;15.95;;
15454;SDS011;21057;51.024;7.540;2023-06-24T02:02:08;16.70;;;15.70;;
15454;SDS011;21057;51.024;7.540;2023-06-24T02:04:38;17.33;;;16.23;;
15454;SDS011;21057;51.024;7.540;2023-06-24T02:07:06;16.70;;;15.70;;
15454;SDS011;21057;51.024;7.540;2023-06-24T02:09:34;16.63;;;15.60;;
15454;SDS011;21057;51.024;7.540;2023-06-24T02:12:02;16.63;;;15.63;;
15454;SDS011;21057;51.024;7.540;2023-06-24T02:14:30;18.33;;;16.80;;
15454;SDS011;21057;51.024;7.540;2023-06-24T02:16:59;17.83;;;16.67;;
15454;SDS011;21057;51.024;7.540;2023-06-24T02:19:29;16.43;;;15.43;;
15454;SDS011;21057;51.024;7.540;2023-06-24T02:21:57;17.38;;;16.02;;
15454;SDS011;21057;51.024;7.540;2023-06-24T02:24:25;16.80;;;15.70;;
15454;SDS011;21057;51.024;7.540;2023-06-24T02:26:54;16.30;;;15.30;;
15454;SDS011;21057;51.024;7.540;2023-06-24T02:29:24;16.20;;;14.70;;
15454;SDS011;21057;51.024;7.540;2023-06-24T02:31:52;17.57;;;16.37;;
15454;SDS011;21057;51.024;7.540;2023-06-24T02:34:19;16.90;;;15.73;;
15454;SDS011;21057;51.024;7.540;2023-06-24T02:36:47;17.63;;;16.33;;
15454;SDS011;21057;51.024;7.540;2023-06-24T02:39:14;16.23;;;15.20;;
15454;SDS011;21057;51.024;7.540;2023-06-24T02:41:41;15.77;;;14.77;;
15454;SDS011;21057;51.024;7.540;2023-06-24T02:44:09;15.93;;;14.93;;
15454;SDS011;21057;51.024;7.540;2023-06-24T02:46:36;15.45;;;14.55;;
15454;SDS011;21057;51.024;7.540;2023-06-24T02:49:04;16.40;;;15.30;;
15454;SDS011;21057;51.024;7.540;2023-06-24T02:51:31;16.83;;;15.63;;
15454;SDS011;21057;51.024;7.540;2023-06-24T02:54:00;16.20;;;15.23;;
15454;SDS011;21057;51.024;7.540;2023-06-24T02:56:27;15.70;;;14.70;;
15454;SDS011;21057;51.024;7.540;2023-06-24T02:58:54;15.87;;;14.87;;
15454;SDS011;21057;51.024;7.540;2023-06-24T03:01:21;16.40;;;15.37;;
15454;SDS011;21057;51.024;7.540;2023-06-24T03:03:51;16.57;;;15.57;;
15454;SDS011;21057;51.024;7.540;2023-06-24T03:06:19;15.60;;;14.70;;
15454;SDS011;21057;51.024;7.540;2023-06-24T03:08:48;17.08;;;15.93;;
15454;SDS011;21057;51.024;7.540;2023-06-24T03:11:17;18.17;;;16.97;;
15454;SDS011;21057;51.024;7.540;2023-06-24T03:13:44;17.60;;;16.43;;
15454;SDS011;21057;51.024;7.540;2023-06-24T03:16:11;17.55;;;16.45;;
15454;SDS011;21057;51.024;7.540;2023-06-24T03:18:39;17.10;;;16.05;;
15454;SDS011;21057;51.024;7.540;2023-06-24T03:21:06;16.83;;;15.63;;
15454;SDS011;21057;51.024;7.540;2023-06-24T03:23:33;16.03;;;15.13;;
15454;SDS011;21057;51.024;7.540;2023-06-24T03:26:00;17.17;;;16.17;;
15454;SDS011;21057;51.024;7.540;2023-06-24T03:28:29;17.43;;;16.13;;
15454;SDS011;21057;51.024;7.540;2023-06-24T03:30:56;16.77;;;15.77;;
15454;SDS011;21057;51.024;7.540;2023-06-24T03:33:23;16.90;;;15.83;;
15454;SDS011;21057;51.024;7.540;2023-06-24T03:35:52;16.97;;;15.97;;
15454;SDS011;21057;51.024;7.540;2023-06-24T03:38:19;17.50;;;16.33;;
15454;SDS011;21057;51.024;7.540;2023-06-24T03:40:46;16.87;;;15.77;;
15454;SDS011;21057;51.024;7.540;2023-06-24T03:43:13;17.07;;;15.97;;
15454;SDS011;21057;51.024;7.540;2023-06-24T03:45:41;16.40;;;15.40;;
15454;SDS011;21057;51.024;7.540;2023-06-24T03:48:08;17.50;;;16.30;;
15454;SDS011;21057;51.024;7.540;2023-06-24T03:50:36;17.17;;;16.07;;
15454;SDS011;21057;51.024;7.540;2023-06-24T03:53:03;17.30;;;15.67;;
15454;SDS011;21057;51.024;7.540;2023-06-24T03:55:30;17.13;;;16.03;;
15454;SDS011;21057;51.024;7.540;2023-06-24T03:57:57;17.97;;;16.43;;
15454;SDS011;21057;51.024;7.540;2023-06-24T04:00:24;17.53;;;16.33;;
15454;SDS011;21057;51.024;7.540;2023-06-24T04:02:52;17.08;;;15.95;;
15454;SDS011;21057;51.024;7.540;2023-06-24T04:05:19;17.17;;;16.17;;
15454;SDS011;21057;51.024;7.540;2023-06-24T04:07:46;17.67;;;16.57;;
15454;SDS011;21057;51.024;7.540;2023-06-24T04:10:17;17.08;;;16.08;;
15454;SDS011;21057;51.024;7.540;2023-06-24T04:12:44;16.83;;;15.73;;
15454;SDS011;21057;51.024;7.540;2023-06-24T04:15:11;17.95;;;16.88;;
15454;SDS011;21057;51.024;7.540;2023-06-24T04:17:38;18.58;;;17.23;;
15454;SDS011;21057;51.024;7.540;2023-06-24T04:20:07;17.60;;;16.40;;
15454;SDS011;21057;51.024;7.540;2023-06-24T04:22:34;17.40;;;16.20;;
15454;SDS011;21057;51.024;7.540;2023-06-24T04:25:02;17.80;;;16.65;;
15454;SDS011;21057;51.024;7.540;2023-06-24T04:27:31;17.17;;;16.08;;
15454;SDS011;21057;51.024;7.540;2023-06-24T04:29:58;18.30;;;17.10;;
15454;SDS011;21057;51.024;7.540;2023-06-24T04:32:25;18.03;;;16.63;;
15454;SDS011;21057;51.024;7.540;2023-06-24T04:34:52;18.23;;;16.63;;
15454;SDS011;21057;51.024;7.540;2023-06-24T04:37:20;17.80;;;16.60;;
15454;SDS011;21057;51.024;7.540;2023-06-24T04:39:47;17.02;;;16.02;;
15454;SDS011;21057;51.024;7.540;2023-06-24T04:42:14;17.02;;;15.85;;
15454;SDS011;21057;51.024;7.540;2023-06-24T04:44:41;17.42;;;16.25;;
15454;SDS011;21057;51.024;7.540;2023-06-24T04:47:08;16.58;;;15.55;;
15454;SDS011;21057;51.024;7.540;2023-06-24T04:49:35;17.05;;;15.85;;
15454;SDS011;21057;51.024;7.540;2023-06-24T04:52:02;17.02;;;16.02;;
15454;SDS011;21057;51.024;7.540;2023-06-24T04:54:31;18.00;;;16.67;;
15454;SDS011;21057;51.024;7.540;2023-06-24T04:56:57;17.95;;;16.85;;
15454;SDS011;21057;51.024;7.540;2023-06-24T04:59:24;17.48;;;16.35;;
15454;SDS011;21057;51.024;7.540;2023-06-24T05:01:51;18.23;;;17.05;;
15454;SDS011;21057;51.024;7.540;2023-06-24T05:04:18;17.85;;;16.65;;
15454;SDS011;21057;51.024;7.540;2023-06-24T05:06:45;19.40;;;17.80;;
15454;SDS011;21057;51.024;7.540;2023-06-24T05:09:12;18.40;;;17.23;;
15454;SDS011;21057;51.024;7.540;2023-06-24T05:11:40;17.70;;;16.60;;
15454;SDS011;21057;51.024;7.540;2023-06-24T05:14:07;18.42;;;17.23;;
15454;SDS011;21057;51.024;7.540;2023-06-24T05:16:34;18.55;;;17.33;;
15454;SDS011;21057;51.024;7.540;2023-06-24T05:19:01;18.08;;;16.88;;
15454;SDS011;21057;51.024;7.540;2023-06-24T05:21:27;16.88;;;15.73;;
15454;SDS011;21057;51.024;7.540;2023-06-24T05:23:54;16.25;;;15.15;;
15454;SDS011;21057;51.024;7.540;2023-06-24T05:26:21;16.73;;;15.57;;
15454;SDS011;21057;51.024;7.540;2023-06-24T05:28:49;17.27;;;15.98;;
15454;SDS011;21057;51.024;7.540;2023-06-24T05:31:16;16.15;;;15.05;;
15454;SDS011;21057;51.024;7.540;2023-06-24T05:33:43;17.73;;;16.52;;
15454;SDS011;21057;51.024;7.540;2023-06-24T05:36:10;17.63;;;16.45;;
15454;SDS011;21057;51.024;7.540;2023-06-24T05:38:37;18.20;;;16.80;;
15454;SDS011;21057;51.024;7.540;2023-06-24T05:41:03;18.33;;;17.02;;
15454;SDS011;21057;51.024;7.540;2023-06-24T05:43:30;18.05;;;16.75;;
15454;SDS011;21057;51.024;7.540;2023-06-24T05:45:58;17.98;;;16.70;;
15454;SDS011;21057;51.024;7.540;2023-06-24T05:48:25;18.67;;;17.38;;
15454;SDS011;21057;51.024;7.540;2023-06-24T05:50:52;18.23;;;16.92;;
15454;SDS011;21057;51.024;7.540;2023-06-24T05:53:19;18.92;;;17.63;;
15454;SDS011;21057;51.024;7.540;2023-06-24T05:55:46;18.42;;;17.23;;
15454;SDS011;21057;51.024;7.540;2023-06-24T05:58:13;18.92;;;17.63;;
15454;SDS011;21057;51.024;7.540;2023-06-24T06:00:40;19.38;;;17.88;;
15454;SDS011;21057;51.024;7.540;2023-06-24T06:03:08;18.70;;;17.45;;
15454;SDS011;21057;51.024;7.540;2023-06-24T06:05:35;18.60;;;17.45;;
15454;SDS011;21057;51.024;7.540;2023-06-24T06:08:02;18.67;;;17.42;;
15454;SDS011;21057;51.024;7.540;2023-06-24T06:10:29;18.92;;;17.75;;
15454;SDS011;21057;51.024;7.540;2023-06-24T06:12:56;19.30;;;17.98;;
15454;SDS011;21057;51.024;7.540;2023-06-24T06:15:23;18.48;;;17.27;;
15454;SDS011;21057;51.024;7.540;2023-06-24T06:17:50;19.48;;;18.10;;
15454;SDS011;21057;51.024;7.540;2023-06-24T06:20:19;17.92;;;16.83;;
15454;SDS011;21057;51.024;7.540;2023-06-24T06:22:46;19.80;;;18.45;;
15454;SDS011;21057;51.024;7.540;2023-06-24T06:25:13;18.83;;;17.63;;
15454;SDS011;21057;51.024;7.540;2023-06-24T06:27:40;17.92;;;16.83;;
15454;SDS011;21057;51.024;7.540;2023-06-24T06:30:07;18.92;;;17.48;;
15454;SDS011;21057;51.024;7.540;2023-06-24T06:32:34;18.35;;;17.15;;
15454;SDS011;21057;51.024;7.540;2023-06-24T06:35:01;18.67;;;17.48;;
15454;SDS011;21057;51.024;7.540;2023-06-24T06:37:29;18.58;;;17.38;;
15454;SDS011;21057;51.024;7.540;2023-06-24T06:39:56;18.67;;;17.38;;
15454;SDS011;21057;51.024;7.540;2023-06-24T06:42:23;18.90;;;17.60;;
15454;SDS011;21057;51.024;7.540;2023-06-24T06:44:50;18.02;;;16.92;;
15454;SDS011;21057;51.024;7.540;2023-06-24T06:47:16;18.27;;;16.88;;
15454;SDS011;21057;51.024;7.540;2023-06-24T06:49:43;18.15;;;16.85;;
15454;SDS011;21057;51.024;7.540;2023-06-24T06:52:10;18.15;;;16.77;;
15454;SDS011;21057;51.024;7.540;2023-06-24T06:54:38;18.35;;;17.05;;
15454;SDS011;21057;51.024;7.540;2023-06-24T06:57:05;18.25;;;17.08;;
15454;SDS011;21057;51.024;7.540;2023-06-24T06:59:33;17.95;;;16.65;;
15454;SDS011;21057;51.024;7.540;2023-06-24T07:02:00;17.70;;;16.50;;
15454;SDS011;21057;51.024;7.540;2023-06-24T07:04:26;18.20;;;16.90;;
15454;SDS011;21057;51.024;7.540;2023-06-24T07:06:53;18.80;;;17.50;;
15454;SDS011;21057;51.024;7.540;2023-06-24T07:09:20;19.73;;;17.88;;
15454;SDS011;21057;51.024;7.540;2023-06-24T07:11:48;17.45;;;16.35;;
15454;SDS011;21057;51.024;7.540;2023-06-24T07:14:15;19.17;;;17.73;;
15454;SDS011;21057;51.024;7.540;2023-06-24T07:16:42;19.63;;;18.05;;
15454;SDS011;21057;51.024;7.540;2023-06-24T07:19:08;18.90;;;17.42;;
15454;SDS011;21057;51.024;7.540;2023-06-24T07:21:35;18.40;;;17.20;;
15454;SDS011;21057;51.024;7.540;2023-06-24T07:24:03;18.33;;;17.05;;
15454;SDS011;21057;51.024;7.540;2023-06-24T07:26:30;18.50;;;17.27;;
15454;SDS011;21057;51.024;7.540;2023-06-24T07:28:59;19.10;;;17.90;;
15454;SDS011;21057;51.024;7.540;2023-06-24T07:31:25;18.35;;;17.15;;
15454;SDS011;21057;51.024;7.540;2023-06-24T07:33:52;19.10;;;17.27;;
15454;SDS011;21057;51.024;7.540;2023-06-24T07:36:19;19.52;;;18.13;;
15454;SDS011;21057;51.024;7.540;2023-06-24T07:38:46;19.60;;;18.05;;
15454;SDS011;21057;51.024;7.540;2023-06-24T07:41:13;19.20;;;17.90;;
15454;SDS011;21057;51.024;7.540;2023-06-24T07:43:39;18.65;;;17.17;;
15454;SDS011;21057;51.024;7.540;2023-06-24T07:46:08;20.38;;;18.98;;
15454;SDS011;21057;51.024;7.540;2023-06-24T07:48:34;19.95;;;18.42;;
15454;SDS011;21057;51.024;7.540;2023-06-24T07:51:01;19.23;;;17.83;;
15454;SDS011;21057;51.024;7.540;2023-06-24T07:53:28;19.80;;;18.40;;
15454;SDS011;21057;51.024;7.540;2023-06-24T07:55:55;19.73;;;18.23;;
15454;SDS011;21057;51.024;7.540;2023-06-24T07:58:22;18.98;;;17.67;;
15454;SDS011;21057;51.024;7.540;2023-06-24T08:00:48;18.50;;;17.23;;
15454;SDS011;21057;51.024;7.540;2023-06-24T08:03:17;20.25;;;18.55;;
15454;SDS011;21057;51.024;7.540;2023-06-24T08:05:43;18.90;;;17.70;;
15454;SDS011;21057;51.024;7.540;2023-06-24T08:08:10;19.40;;;17.92;;
15454;SDS011;21057;51.024;7.540;2023-06-24T08:10:37;18.70;;;17.38;;
15454;SDS011;21057;51.024;7.540;2023-06-24T08:13:04;18.88;;;17.60;;
15454;SDS011;21057;51.024;7.540;2023-06-24T08:15:31;19.38;;;18.08;;
15454;SDS011;21057;51.024;7.540;2023-06-24T08:17:57;18.77;;;17.58;;
15454;SDS011;21057;51.024;7.540;2023-06-24T08:20:26;18.95;;;17.60;;
15454;SDS011;21057;51.024;7.540;2023-06-24T08:22:52;20.42;;;18.83;;
15454;SDS011;21057;51.024;7.540;2023-06-24T08:31:09;19.10;;;17.80;;
15454;SDS011;21057;51.024;7.540;2023-06-24T08:33:36;19.13;;;17.83;;
15454;SDS011;21057;51.024;7.540;2023-06-24T08:36:04;19.52;;;18.17;;
15454;SDS011;21057;51.024;7.540;2023-06-24T08:38:31;19.65;;;18.15;;
15454;SDS011;21057;51.024;7.540;2023-06-24T08:40:58;18.33;;;17.15;;
15454;SDS011;21057;51.024;7.540;2023-06-24T08:43:25;19.13;;;17.42;;
15454;SDS011;21057;51.024;7.540;2023-06-24T08:45:52;19.25;;;17.85;;
15454;SDS011;21057;51.024;7.540;2023-06-24T08:51:09;18.88;;;17.58;;
15454;SDS011;21057;51.024;7.540;2023-06-24T08:53:39;18.45;;;17.15;;
15454;SDS011;21057;51.024;7.540;2023-06-24T08:56:09;19.40;;;18.00;;
15454;SDS011;21057;51.024;7.540;2023-06-24T08:58:37;18.95;;;17.65;;
15454;SDS011;21057;51.024;7.540;2023-06-24T09:01:03;18.90;;;17.50;;
15454;SDS011;21057;51.024;7.540;2023-06-24T09:03:32;18.85;;;17.50;;
15454;SDS011;21057;51.024;7.540;2023-06-24T09:05:58;19.20;;;17.90;;
15454;SDS011;21057;51.024;7.540;2023-06-24T09:08:26;19.60;;;18.00;;
15454;SDS011;21057;51.024;7.540;2023-06-24T09:10:53;18.98;;;17.58;;
15454;SDS011;21057;51.024;7.540;2023-06-24T09:13:21;19.52;;;18.10;;
15454;SDS011;21057;51.024;7.540;2023-06-24T09:15:59;19.20;;;17.77;;
15454;SDS011;21057;51.024;7.540;2023-06-24T09:18:34;19.48;;;17.88;;
15454;SDS011;21057;51.024;7.540;2023-06-24T09:21:01;17.80;;;16.75;;
15454;SDS011;21057;51.024;7.540;2023-06-24T09:23:29;19.02;;;17.73;;
15454;SDS011;21057;51.024;7.540;2023-06-24T09:26:01;18.60;;;17.33;;
15454;SDS011;21057;51.024;7.540;2023-06-24T09:28:27;20.73;;;19.13;;
15454;SDS011;21057;51.024;7.540;2023-06-24T09:31:04;19.15;;;17.85;;
15454;SDS011;21057;51.024;7.540;2023-06-24T09:33:32;19.77;;;18.38;;
15454;SDS011;21057;51.024;7.540;2023-06-24T09:36:01;19.23;;;18.00;;
15454;SDS011;21057;51.024;7.540;2023-06-24T09:38:33;19.38;;;17.98;;
15454;SDS011;21057;51.024;7.540;2023-06-24T09:41:01;18.70;;;17.50;;
15454;SDS011;21057;51.024;7.540;2023-06-24T09:43:30;18.67;;;17.17;;
15454;SDS011;21057;51.024;7.540;2023-06-24T09:45:57;18.45;;;17.25;;
15454;SDS011;21057;51.024;7.540;2023-06-24T09:48:24;19.08;;;17.67;;
15454;SDS011;21057;51.024;7.540;2023-06-24T09:50:51;18.08;;;16.88;;
15454;SDS011;21057;51.024;7.540;2023-06-24T09:53:18;19.13;;;17.85;;
15454;SDS011;21057;51.024;7.540;2023-06-24T09:55:47;18.83;;;17.60;;
15454;SDS011;21057;51.024;7.540;2023-06-24T09:58:14;18.05;;;16.85;;
15454;SDS011;21057;51.024;7.540;2023-06-24T10:00:43;18.98;;;17.67;;
15454;SDS011;21057;51.024;7.540;2023-06-24T10:03:09;19.13;;;17.77;;
15454;SDS011;21057;51.024;7.540;2023-06-24T10:05:37;18.33;;;16.98;;
15454;SDS011;21057;51.024;7.540;2023-06-24T10:08:05;18.58;;;17.38;;
15454;SDS011;21057;51.024;7.540;2023-06-24T10:10:33;19.15;;;17.75;;
15454;SDS011;21057;51.024;7.540;2023-06-24T10:13:03;18.58;;;17.17;;
15454;SDS011;21057;51.024;7.540;2023-06-24T10:15:33;18.63;;;17.23;;
15454;SDS011;21057;51.024;7.540;2023-06-24T10:18:01;18.80;;;17.50;;
15454;SDS011;21057;51.024;7.540;2023-06-24T10:20:29;18.00;;;16.90;;
15454;SDS011;21057;51.024;7.540;2023-06-24T10:22:55;18.15;;;16.85;;
15454;SDS011;21057;51.024;7.540;2023-06-24T10:25:24;17.05;;;15.93;;
15454;SDS011;21057;51.024;7.540;2023-06-24T10:28:01;17.20;;;16.05;;
15454;SDS011;21057;51.024;7.540;2023-06-24T10:30:30;16.50;;;15.50;;
15454;SDS011;21057;51.024;7.540;2023-06-24T10:32:58;16.70;;;15.60;;
15454;SDS011;21057;51.024;7.540;2023-06-24T10:35:26;16.05;;;14.95;;
15454;SDS011;21057;51.024;7.540;2023-06-24T10:37:55;17.00;;;15.93;;
15454;SDS011;21057;51.024;7.540;2023-06-24T10:40:36;17.98;;;16.67;;
15454;SDS011;21057;51.024;7.540;2023-06-24T10:45:54;17.33;;;16.33;;
15454;SDS011;21057;51.024;7.540;2023-06-24T10:48:22;17.88;;;16.42;;
15454;SDS011;21057;51.024;7.540;2023-06-24T10:50:49;19.27;;;17.88;;
15454;SDS011;21057;51.024;7.540;2023-06-24T10:53:16;17.88;;;16.58;;
15454;SDS011;21057;51.024;7.540;2023-06-24T10:55:44;17.20;;;16.10;;
15454;SDS011;21057;51.024;7.540;2023-06-24T10:58:12;17.40;;;16.30;;
15454;SDS011;21057;51.024;7.540;2023-06-24T11:00:40;16.45;;;15.45;;
15454;SDS011;21057;51.024;7.540;2023-06-24T11:03:10;16.75;;;15.75;;
15454;SDS011;21057;51.024;7.540;2023-06-24T11:08:30;17.02;;;15.93;;
15454;SDS011;21057;51.024;7.540;2023-06-24T11:10:57;17.38;;;16.27;;
15454;SDS011;21057;51.024;7.540;2023-06-24T11:13:24;17.20;;;16.17;;
15454;SDS011;21057;51.024;7.540;2023-06-24T11:15:51;17.25;;;16.15;;
15454;SDS011;21057;51.024;7.540;2023-06-24T11:18:20;16.95;;;15.80;;
15454;SDS011;21057;51.024;7.540;2023-06-24T11:20:46;17.73;;;16.48;;
15454;SDS011;21057;51.024;7.540;2023-06-24T11:23:13;18.13;;;16.80;;
15454;SDS011;21057;51.024;7.540;2023-06-24T11:25:40;17.42;;;16.30;;
15454;SDS011;21057;51.024;7.540;2023-06-24T11:28:14;17.88;;;16.73;;
15454;SDS011;21057;51.024;7.540;2023-06-24T11:30:43;18.50;;;17.35;;
15454;SDS011;21057;51.024;7.540;2023-06-24T11:33:09;18.65;;;17.25;;
15454;SDS011;21057;51.024;7.540;2023-06-24T11:35:38;17.83;;;16.63;;
15454;SDS011;21057;51.024;7.540;2023-06-24T11:38:04;18.60;;;17.38;;
15454;SDS011;21057;51.024;7.540;2023-06-24T11:40:31;18.55;;;17.25;;
15454;SDS011;21057;51.024;7.540;2023-06-24T11:43:00;17.33;;;16.23;;
15454;SDS011;21057;51.024;7.540;2023-06-24T11:45:27;17.85;;;16.48;;
15454;SDS011;21057;51.024;7.540;2023-06-24T11:47:54;18.92;;;17.73;;
15454;SDS011;21057;51.024;7.540;2023-06-24T11:50:29;18.33;;;17.08;;
15454;SDS011;21057;51.024;7.540;2023-06-24T11:52:57;18.33;;;17.13;;
15454;SDS011;21057;51.024;7.540;2023-06-24T11:55:25;17.80;;;16.60;;
15454;SDS011;21057;51.024;7.540;2023-06-24T11:57:54;16.42;;;15.38;;
15454;SDS011;21057;51.024;7.540;2023-06-24T12:00:22;16.92;;;15.82;;
15454;SDS011;21057;51.024;7.540;2023-06-24T12:02:50;17.48;;;16.38;;
15454;SDS011;21057;51.024;7.540;2023-06-24T12:05:25;16.50;;;15.50;;
15454;SDS011;21057;51.024;7.540;2023-06-24T12:07:54;16.95;;;15.93;;
15454;SDS011;21057;51.024;7.540;2023-06-24T12:10:23;16.60;;;15.60;;
15454;SDS011;21057;51.024;7.540;2023-06-24T12:12:50;16.60;;;15.52;;
15454;SDS011;21057;51.024;7.540;2023-06-24T12:15:17;17.33;;;16.23;;
15454;SDS011;21057;51.024;7.540;2023-06-24T12:17:44;17.58;;;16.40;;
15454;SDS011;21057;51.024;7.540;2023-06-24T12:20:11;16.92;;;15.93;;
15454;SDS011;21057;51.024;7.540;2023-06-24T12:22:39;17.02;;;16.00;;
15454;SDS011;21057;51.024;7.540;2023-06-24T12:25:06;16.55;;;15.45;;
15454;SDS011;21057;51.024;7.540;2023-06-24T12:27:35;16.25;;;15.05;;
15454;SDS011;21057;51.024;7.540;2023-06-24T12:30:05;15.95;;;14.85;;
15454;SDS011;21057;51.024;7.540;2023-06-24T12:32:33;16.63;;;15.50;;
15454;SDS011;21057;51.024;7.540;2023-06-24T12:34:59;17.00;;;15.80;;
15454;SDS011;21057;51.024;7.540;2023-06-24T12:37:28;16.33;;;15.32;;
15454;SDS011;21057;51.024;7.540;2023-06-24T12:39:56;16.13;;;15.07;;
15454;SDS011;21057;51.024;7.540;2023-06-24T12:42:23;16.25;;;15.25;;
15454;SDS011;21057;51.024;7.540;2023-06-24T12:44:51;16.95;;;15.95;;
15454;SDS011;21057;51.024;7.540;2023-06-24T12:47:18;16.67;;;15.57;;
15454;SDS011;21057;51.024;7.540;2023-06-24T12:49:45;16.67;;;15.68;;
15454;SDS011;21057;51.024;7.540;2023-06-24T12:52:12;17.23;;;16.05;;
15454;SDS011;21057;51.024;7.540;2023-06-24T12:54:39;16.55;;;15.45;;
15454;SDS011;21057;51.024;7.540;2023-06-24T12:57:06;15.50;;;14.60;;
15454;SDS011;21057;51.024;7.540;2023-06-24T12:59:33;15.60;;;14.60;;
15454;SDS011;21057;51.024;7.540;2023-06-24T13:02:01;16.55;;;15.55;;
15454;SDS011;21057;51.024;7.540;2023-06-24T13:04:28;16.63;;;15.57;;
15454;SDS011;21057;51.024;7.540;2023-06-24T13:06:55;16.77;;;15.57;;
15454;SDS011;21057;51.024;7.540;2023-06-24T13:09:22;17.17;;;15.60;;
15454;SDS011;21057;51.024;7.540;2023-06-24T13:11:49;16.60;;;15.60;;
15454;SDS011;21057;51.024;7.540;2023-06-24T13:14:16;16.80;;;15.55;;
15454;SDS011;21057;51.024;7.540;2023-06-24T13:16:43;16.48;;;15.32;;
15454;SDS011;21057;51.024;7.540;2023-06-24T13:19:11;16.83;;;15.73;;
15454;SDS011;21057;51.024;7.540;2023-06-24T13:21:38;16.58;;;15.55;;
15454;SDS011;21057;51.024;7.540;2023-06-24T13:24:06;16.80;;;15.80;;
15454;SDS011;21057;51.024;7.540;2023-06-24T13:26:33;16.20;;;15.20;;
15454;SDS011;21057;51.024;7.540;2023-06-24T13:29:00;16.25;;;15.20;;
15454;SDS011;21057;51.024;7.540;2023-06-24T13:31:27;16.73;;;15.63;;
15454;SDS011;21057;51.024;7.540;2023-06-24T13:33:54;16.52;;;15.50;;
15454;SDS011;21057;51.024;7.540;2023-06-24T13:36:30;15.85;;;14.95;;
15454;SDS011;21057;51.024;7.540;2023-06-24T13:39:00;15.77;;;14.77;;
15454;SDS011;21057;51.024;7.540;2023-06-24T13:41:27;15.85;;;14.85;;
15454;SDS011;21057;51.024;7.540;2023-06-24T13:43:57;16.33;;;15.23;;
15454;SDS011;21057;51.024;7.540;2023-06-24T13:46:24;16.00;;;15.00;;
15454;SDS011;21057;51.024;7.540;2023-06-24T13:48:51;15.68;;;14.70;;
15454;SDS011;21057;51.024;7.540;2023-06-24T13:51:18;16.20;;;15.10;;
15454;SDS011;21057;51.024;7.540;2023-06-24T13:53:47;16.17;;;15.10;;
15454;SDS011;21057;51.024;7.540;2023-06-24T13:56:15;15.77;;;14.80;;
15454;SDS011;21057;51.024;7.540;2023-06-24T13:58:42;16.58;;;15.57;;
15454;SDS011;21057;51.024;7.540;2023-06-24T14:01:09;16.85;;;15.85;;
15454;SDS011;21057;51.024;7.540;2023-06-24T14:03:36;17.83;;;16.63;;
15454;SDS011;21057;51.024;7.540;2023-06-24T14:06:03;17.35;;;16.13;;
15454;SDS011;21057;51.024;7.540;2023-06-24T14:08:35;17.20;;;16.20;;
15454;SDS011;21057;51.024;7.540;2023-06-24T14:11:04;16.40;;;15.40;;
15454;SDS011;21057;51.024;7.540;2023-06-24T14:13:35;16.30;;;15.20;;
15454;SDS011;21057;51.024;7.540;2023-06-24T14:16:02;17.08;;;15.98;;
15454;SDS011;21057;51.024;7.540;2023-06-24T14:18:30;16.88;;;15.88;;
15454;SDS011;21057;51.024;7.540;2023-06-24T14:20:57;16.67;;;15.68;;
15454;SDS011;21057;51.024;7.540;2023-06-24T14:23:24;16.73;;;15.73;;
15454;SDS011;21057;51.024;7.540;2023-06-24T14:25:51;16.40;;;15.30;;
15454;SDS011;21057;51.024;7.540;2023-06-24T14:28:20;16.13;;;15.15;;
15454;SDS011;21057;51.024;7.540;2023-06-24T14:30:47;17.73;;;16.58;;
15454;SDS011;21057;51.024;7.540;2023-06-24T14:33:14;16.17;;;15.18;;
15454;SDS011;21057;51.024;7.540;2023-06-24T14:35:42;16.63;;;15.50;;
15454;SDS011;21057;51.024;7.540;2023-06-24T14:38:09;16.83;;;15.73;;
15454;SDS011;21057;51.024;7.540;2023-06-24T14:40:36;16.65;;;15.63;;
15454;SDS011;21057;51.024;7.540;2023-06-24T14:43:02;17.15;;;15.90;;